createdAt,value
2023-04-21T03:45:38.691Z,613.20
2023-04-21T03:48:05.853Z,603.90
2023-04-21T03:50:32.581Z,601.30
2023-04-21T03:52:59.253Z,610.85
2023-04-21T03:55:25.925Z,609.20
2023-04-21T03:57:52.659Z,599.80
2023-04-21T04:00:19.434Z,605.17
2023-04-21T04:02:46.145Z,602.60
2023-04-21T04:05:13.036Z,608.72
2023-04-21T04:07:39.715Z,608.45
2023-04-21T04:10:06.585Z,605.33
2023-04-21T04:12:33.318Z,600.38
2023-04-21T04:14:59.920Z,608.72
2023-04-21T04:17:26.822Z,597.47
2023-04-21T04:19:53.495Z,610.57
2023-04-21T04:22:20.278Z,605.85
2023-04-21T04:24:47.890Z,603.78
2023-04-21T04:27:14.500Z,610.67
2023-04-21T04:29:41.226Z,606.55
2023-04-21T04:32:10.971Z,607.72
2023-04-21T04:34:38.191Z,605.77
2023-04-21T04:37:04.901Z,605.80
2023-04-21T04:39:32.110Z,610.83
2023-04-21T04:41:58.810Z,611.15
2023-04-21T04:44:25.860Z,607.92
2023-04-21T04:46:52.864Z,608.05
2023-04-21T04:49:20.838Z,607.13
2023-04-21T04:51:48.404Z,605.88
2023-04-21T04:54:15.042Z,609.28
2023-04-21T04:56:41.716Z,600.67
2023-04-21T04:59:08.458Z,600.67
2023-04-21T05:01:35.119Z,602.95
2023-04-21T05:04:01.893Z,602.05
2023-04-21T05:06:28.644Z,604.08
2023-04-21T05:08:56.077Z,605.70
2023-04-21T05:11:23.042Z,600.72
2023-04-21T05:13:49.770Z,599.25
2023-04-21T05:16:16.490Z,608.20
2023-04-21T05:18:43.188Z,608.88
2023-04-21T05:21:09.840Z,601.33
2023-04-21T05:23:36.487Z,605.75
2023-04-21T05:26:04.728Z,618.45
2023-04-21T05:28:32.023Z,598.05
2023-04-21T05:30:58.744Z,600.55
2023-04-21T05:33:26.859Z,606.47
2023-04-21T05:35:53.666Z,603.03
2023-04-21T05:38:20.388Z,608.13
2023-04-21T05:40:53.964Z,603.93
2023-04-21T05:43:20.676Z,619.63
2023-04-21T05:45:47.349Z,611.42
2023-04-21T05:48:13.995Z,613.35
2023-04-21T05:50:40.665Z,603.03
2023-04-21T05:53:07.292Z,622.90
2023-04-21T05:55:34.908Z,614.80
2023-04-21T05:58:01.693Z,620.45
2023-04-21T06:00:28.298Z,627.33
2023-04-21T06:02:55.060Z,630.42
2023-04-21T06:05:22.094Z,624.83
2023-04-21T06:07:48.812Z,629.08
2023-04-21T06:10:16.009Z,642.38
2023-04-21T06:12:42.614Z,632.22
2023-04-21T06:15:09.607Z,633.20
2023-04-21T06:17:36.347Z,643.65
2023-04-21T06:20:03.993Z,647.72
2023-04-21T06:22:30.821Z,655.40
2023-04-21T06:24:58.747Z,655.45
2023-04-21T06:27:25.710Z,671.33
2023-04-21T06:29:56.180Z,679.97
2023-04-21T06:32:22.856Z,676.05
2023-04-21T06:34:49.512Z,683.50
2023-04-21T06:37:16.473Z,682.97
2023-04-21T06:39:43.094Z,689.85
2023-04-21T06:42:09.771Z,693.65
2023-04-21T06:44:37.941Z,710.78
2023-04-21T06:47:04.737Z,714.53
2023-04-21T06:49:31.414Z,718.55
2023-04-21T06:51:58.052Z,715.63
2023-04-21T06:54:24.642Z,727.10
2023-04-21T06:56:51.468Z,733.10
2023-04-21T06:59:18.408Z,738.90
2023-04-21T07:01:45.512Z,733.78
2023-04-21T07:04:12.350Z,750.58
2023-04-21T07:06:39.071Z,756.87
2023-04-21T07:09:05.949Z,760.80
2023-04-21T07:11:32.650Z,765.97
2023-04-21T07:14:02.128Z,775.40
2023-04-21T07:16:30.085Z,772.55
2023-04-21T07:18:56.931Z,773.30
2023-04-21T07:21:23.608Z,768.72
2023-04-21T07:23:50.311Z,772.78
2023-04-21T07:26:18.124Z,778.85
2023-04-21T07:28:44.743Z,785.50
2023-04-21T07:31:11.378Z,789.42
2023-04-21T07:33:38.062Z,780.90
2023-04-21T07:36:05.018Z,788.97
2023-04-21T07:38:31.627Z,798.67
2023-04-21T07:40:58.282Z,798.30
2023-04-21T07:43:26.759Z,800.30
2023-04-21T07:45:53.462Z,803.00
2023-04-21T07:48:20.337Z,823.33
2023-04-21T07:50:47.010Z,813.40
2023-04-21T07:53:13.612Z,816.80
2023-04-21T07:55:40.274Z,817.45
2023-04-21T07:58:07.401Z,815.55
2023-04-21T08:00:34.137Z,825.60
2023-04-21T08:03:01.085Z,813.03
2023-04-21T08:05:33.323Z,823.75
2023-04-21T08:08:02.180Z,833.03
2023-04-21T08:10:28.979Z,837.35
2023-04-21T08:12:56.002Z,844.08
2023-04-21T08:15:22.779Z,861.37
2023-04-21T08:17:49.579Z,852.92
2023-04-21T08:20:16.486Z,850.58
2023-04-21T08:22:43.326Z,852.65
2023-04-21T08:25:10.712Z,872.08
2023-04-21T08:27:40.446Z,857.08
2023-04-21T08:30:07.831Z,868.80
2023-04-21T08:32:34.491Z,879.08
2023-04-21T08:35:01.204Z,892.63
2023-04-21T08:37:29.164Z,895.28
2023-04-21T08:39:55.963Z,898.50
2023-04-21T08:42:22.578Z,914.83
2023-04-21T08:44:49.532Z,937.88
2023-04-21T08:47:16.346Z,962.17
2023-04-21T08:49:45.089Z,973.40
2023-04-21T08:52:13.867Z,999.90
2023-04-21T08:54:40.912Z,999.90
2023-04-21T08:57:15.523Z,999.90
2023-04-21T08:59:42.962Z,999.90
2023-04-21T09:02:17.880Z,999.90
2023-04-21T09:04:50.489Z,999.90
2023-04-21T09:07:35.016Z,999.90
2023-04-21T09:10:01.933Z,999.90
2023-04-21T09:12:29.372Z,999.90
2023-04-21T09:14:57.988Z,999.90
2023-04-21T09:17:33.905Z,999.90
2023-04-21T09:20:17.486Z,999.90
2023-04-21T09:22:44.650Z,999.90
2023-04-21T09:25:16.619Z,999.90
2023-04-21T09:27:43.309Z,999.90
2023-04-21T09:30:10.313Z,999.90
2023-04-21T09:32:40.728Z,999.90
2023-04-21T09:35:11.532Z,999.90
2023-04-21T09:37:39.813Z,999.90
2023-04-21T09:40:06.969Z,999.90
2023-04-21T09:42:38.128Z,999.90
2023-04-21T09:45:29.050Z,999.90
2023-04-21T09:48:00.614Z,999.90
2023-04-21T09:51:07.138Z,999.90
2023-04-21T09:53:18.311Z,999.90
2023-04-21T09:55:49.475Z,999.90
2023-04-21T09:58:20.183Z,999.90
2023-04-21T10:00:47.674Z,999.90
2023-04-21T10:03:17.121Z,999.90
2023-04-21T10:05:44.082Z,999.90
2023-04-21T10:08:12.167Z,999.90
2023-04-21T10:10:39.565Z,999.90
2023-04-21T10:13:06.778Z,999.90
2023-04-21T10:15:41.229Z,999.90
2023-04-21T10:18:18.663Z,999.90
2023-04-21T10:20:58.273Z,999.90
2023-04-21T10:23:32.868Z,999.90
2023-04-21T10:26:25.457Z,999.90
2023-04-21T10:29:09.499Z,999.90
2023-04-21T10:31:54.651Z,999.90
2023-04-21T10:34:29.102Z,999.90
2023-04-21T10:36:55.655Z,999.90
2023-04-21T10:39:42.475Z,999.90
2023-04-21T10:42:37.101Z,999.90
2023-04-21T10:45:09.362Z,999.90
2023-04-21T10:47:45.124Z,999.90
2023-04-21T10:50:17.384Z,999.90
2023-04-21T10:52:59.476Z,999.90
2023-04-21T10:55:27.533Z,999.90
2023-04-21T10:57:54.397Z,999.90
2023-04-21T11:00:23.760Z,999.90
2023-04-21T11:03:12.558Z,999.90
2023-04-21T11:05:41.135Z,999.90
2023-04-21T11:08:13.985Z,999.90
2023-04-21T11:10:51.654Z,999.90
2023-04-21T11:13:21.669Z,999.90
2023-04-21T11:16:02.361Z,999.90
2023-04-21T11:18:40.411Z,999.90
2023-04-21T11:21:18.549Z,999.90
2023-04-21T11:23:53.247Z,999.90
2023-04-21T11:26:33.914Z,999.90
2023-04-21T11:29:06.066Z,999.90
2023-04-21T11:31:33.432Z,999.90
2023-04-21T11:34:01.563Z,999.90
2023-04-21T11:36:29.253Z,999.90
2023-04-21T11:38:55.854Z,999.90
2023-04-21T11:41:23.706Z,999.90
2023-04-21T11:43:53.759Z,999.90
2023-04-21T11:46:27.595Z,999.90
2023-04-21T11:49:05.613Z,999.90
2023-04-21T11:51:36.042Z,999.90
2023-04-21T11:54:04.417Z,999.90
2023-04-21T11:56:41.727Z,999.90
2023-04-21T11:59:13.094Z,999.90
2023-04-21T12:01:50.483Z,999.90
2023-04-21T12:04:24.753Z,999.90
2023-04-21T12:07:02.245Z,999.90
2023-04-21T12:09:30.346Z,999.90
2023-04-21T12:11:58.926Z,999.90
2023-04-21T12:14:29.204Z,999.90
2023-04-21T12:16:58.241Z,999.90
2023-04-21T12:19:34.687Z,999.90
2023-04-21T12:22:01.284Z,999.90
2023-04-21T12:24:28.429Z,999.90
2023-04-21T12:26:55.197Z,999.90
2023-04-21T12:29:21.802Z,999.90
2023-04-21T12:31:48.517Z,999.90
2023-04-21T12:34:16.018Z,999.90
2023-04-21T12:36:43.111Z,999.90
2023-04-21T12:39:10.190Z,999.90
2023-04-21T12:41:36.927Z,999.90
2023-04-21T12:44:03.768Z,999.90
2023-04-21T12:46:30.475Z,999.90
2023-04-21T12:48:57.198Z,999.90
2023-04-21T12:51:26.099Z,999.90
2023-04-21T12:53:52.837Z,999.90
2023-04-21T12:56:19.799Z,999.90
2023-04-21T12:58:48.198Z,999.90
2023-04-21T13:01:16.141Z,999.90
2023-04-21T13:03:43.128Z,999.90
2023-04-21T13:06:10.939Z,994.58
2023-04-21T13:08:37.636Z,999.58
2023-04-21T13:11:04.392Z,997.60
2023-04-21T13:13:31.189Z,991.58
2023-04-21T13:15:57.849Z,992.72
2023-04-21T13:18:24.486Z,990.08
2023-04-21T13:20:51.411Z,988.38
2023-04-21T13:23:18.136Z,988.15
2023-04-21T13:25:45.577Z,985.33
2023-04-21T13:28:14.355Z,986.93
2023-04-21T13:30:41.315Z,985.90
2023-04-21T13:33:08.148Z,981.08
2023-04-21T13:35:34.854Z,980.70
2023-04-21T13:38:01.559Z,981.95
2023-04-21T13:40:28.348Z,976.67
2023-04-21T13:42:55.056Z,979.05
2023-04-21T13:45:22.050Z,971.77
2023-04-21T13:47:48.727Z,980.92
2023-04-21T13:50:15.439Z,976.80
2023-04-21T13:52:42.070Z,962.95
2023-04-21T13:55:09.030Z,967.13
2023-04-21T13:57:35.696Z,956.67
2023-04-21T14:00:05.093Z,934.85
2023-04-21T14:02:31.987Z,933.72
2023-04-21T14:04:59.012Z,926.47
2023-04-21T14:07:26.532Z,930.55
2023-04-21T14:09:54.285Z,923.22
2023-04-21T14:12:21.029Z,927.08
2023-04-21T14:14:47.775Z,934.67
2023-04-21T14:17:16.629Z,930.03
2023-04-21T14:19:43.364Z,931.45
2023-04-21T14:22:10.160Z,937.03
2023-04-21T14:24:36.787Z,930.97
2023-04-21T14:27:03.599Z,937.65
2023-04-21T14:29:30.286Z,929.85
2023-04-21T14:31:57.733Z,928.67
2023-04-21T14:34:26.091Z,920.90
2023-04-21T14:36:53.396Z,919.78
2023-04-21T14:39:20.207Z,931.80
2023-04-21T14:41:46.865Z,921.00
2023-04-21T14:44:13.564Z,917.95
2023-04-21T14:46:40.349Z,927.65
2023-04-21T14:49:07.135Z,927.13
2023-04-21T14:51:33.944Z,941.67
2023-04-21T14:54:00.685Z,951.30
2023-04-21T14:56:27.390Z,953.03
2023-04-21T14:58:54.002Z,957.00
2023-04-21T15:01:22.070Z,967.17
2023-04-21T15:03:49.924Z,965.80
2023-04-21T15:06:16.721Z,966.45
2023-04-21T15:08:43.325Z,973.60
2023-04-21T15:11:10.160Z,972.40
2023-04-21T15:13:37.089Z,977.20
2023-04-21T15:16:03.746Z,971.35
2023-04-21T15:18:30.454Z,972.70
2023-04-21T15:20:57.303Z,970.07
2023-04-21T15:23:24.018Z,969.38
2023-04-21T15:25:50.734Z,968.77
2023-04-21T15:28:17.344Z,970.37
2023-04-21T15:30:43.970Z,966.40
2023-04-21T15:33:11.632Z,965.67
2023-04-21T15:35:38.328Z,973.05
2023-04-21T15:38:06.275Z,971.38
2023-04-21T15:40:32.964Z,975.75
2023-04-21T15:42:59.735Z,978.13
2023-04-21T15:45:26.339Z,975.58
2023-04-21T15:47:53.015Z,981.15
2023-04-21T15:50:19.658Z,975.88
2023-04-21T15:52:46.419Z,977.17
2023-04-21T15:55:13.856Z,974.63
2023-04-21T15:57:40.595Z,968.75
2023-04-21T16:00:10.267Z,967.33
2023-04-21T16:02:37.426Z,965.00
2023-04-21T16:05:04.682Z,971.25
2023-04-21T16:07:31.625Z,968.28
2023-04-21T16:09:58.527Z,969.63
2023-04-21T16:12:25.251Z,966.88
2023-04-21T16:14:57.406Z,964.95
2023-04-21T16:17:28.400Z,964.67
2023-04-21T16:19:55.234Z,958.92
2023-04-21T16:22:21.945Z,964.22
2023-04-21T16:24:49.798Z,963.65
2023-04-21T16:27:16.574Z,959.78
2023-04-21T16:29:43.206Z,962.35
2023-04-21T16:32:09.938Z,959.42
2023-04-21T16:34:36.881Z,962.25
2023-04-21T16:37:03.709Z,963.72
2023-04-21T16:39:30.463Z,965.00
2023-04-21T16:41:57.107Z,960.20
2023-04-21T16:44:23.727Z,963.53
2023-04-21T16:46:50.629Z,955.88
2023-04-21T16:49:17.539Z,948.72
2023-04-21T16:51:45.492Z,942.17
2023-04-21T16:54:12.544Z,931.17
2023-04-21T16:56:39.437Z,930.15
2023-04-21T16:59:08.788Z,922.50
2023-04-21T17:01:35.504Z,925.45
2023-04-21T17:04:06.494Z,919.80
2023-04-21T17:06:34.151Z,908.30
2023-04-21T17:09:01.137Z,905.50
2023-04-21T17:11:28.694Z,907.38
2023-04-21T17:13:55.486Z,897.13
2023-04-21T17:16:22.153Z,897.45
2023-04-21T17:18:48.934Z,901.47
2023-04-21T17:21:15.725Z,901.67
2023-04-21T17:23:42.480Z,911.60
2023-04-21T17:26:12.283Z,898.35
2023-04-21T17:28:39.944Z,903.33
2023-04-21T17:31:14.958Z,902.78
2023-04-21T17:33:44.099Z,906.53
2023-04-21T17:36:11.433Z,903.80
2023-04-21T17:38:38.170Z,903.47
2023-04-21T17:41:06.727Z,911.20
2023-04-21T17:43:33.394Z,909.60
2023-04-21T17:46:00.088Z,910.08
2023-04-21T17:48:27.314Z,914.85
2023-04-21T17:50:53.963Z,916.85
2023-04-21T17:53:20.672Z,917.38
2023-04-21T17:55:47.382Z,915.95
2023-04-21T17:58:14.048Z,904.08
2023-04-21T18:00:40.769Z,912.35
2023-04-21T18:03:07.593Z,912.85
2023-04-21T18:05:34.400Z,909.95
2023-04-21T18:08:01.281Z,904.63
2023-04-21T18:10:29.769Z,904.75
2023-04-21T18:12:57.322Z,898.63
2023-04-21T18:15:24.128Z,908.08
2023-04-21T18:17:52.857Z,900.13
2023-04-21T18:20:19.700Z,906.67
2023-04-21T18:22:46.489Z,901.93
2023-04-21T18:25:13.236Z,907.22
2023-04-21T18:27:40.620Z,899.50
2023-04-21T18:30:08.780Z,893.73
2023-04-21T18:32:39.019Z,898.08
2023-04-21T18:35:07.098Z,894.10
2023-04-21T18:37:34.030Z,888.63
2023-04-21T18:40:00.684Z,892.63
2023-04-21T18:42:27.740Z,889.90
2023-04-21T18:44:57.600Z,887.58
2023-04-21T18:47:24.896Z,889.42
2023-04-21T18:49:52.621Z,886.22
2023-04-21T18:52:19.343Z,890.13
2023-04-21T18:54:45.975Z,886.47
2023-04-21T18:57:12.757Z,890.13
2023-04-21T18:59:39.438Z,890.40
2023-04-21T19:02:07.316Z,888.63
2023-04-21T19:04:34.357Z,892.70
2023-04-21T19:07:01.860Z,893.33
2023-04-21T19:09:28.821Z,891.67
2023-04-21T19:11:55.605Z,899.45
2023-04-21T19:14:22.469Z,891.65
2023-04-21T19:16:49.475Z,894.00
2023-04-21T19:19:16.398Z,893.38
2023-04-21T19:21:43.097Z,894.08
2023-04-21T19:24:09.802Z,890.85
2023-04-21T19:26:36.728Z,886.58
2023-04-21T19:29:03.720Z,892.50
2023-04-21T19:31:30.542Z,886.70
2023-04-21T19:33:57.165Z,891.88
2023-04-21T19:36:23.851Z,885.10
2023-04-21T19:38:50.656Z,890.35
2023-04-21T19:41:17.396Z,892.58
2023-04-21T19:43:44.065Z,885.73
2023-04-21T19:46:11.021Z,883.97
2023-04-21T19:48:38.481Z,884.08
2023-04-21T19:51:07.451Z,880.05
2023-04-21T19:53:34.278Z,881.05
2023-04-21T19:56:01.197Z,877.20
2023-04-21T19:58:39.549Z,885.80
2023-04-21T20:01:07.747Z,887.10
2023-04-21T20:03:34.846Z,881.42
2023-04-21T20:06:02.184Z,873.87
2023-04-21T20:08:29.592Z,883.95
2023-04-21T20:10:56.253Z,882.22
2023-04-21T20:13:23.315Z,880.38
2023-04-21T20:15:50.034Z,870.88
2023-04-21T20:18:16.850Z,879.17
2023-04-21T20:20:43.540Z,866.58
2023-04-21T20:23:10.972Z,852.95
2023-04-21T20:25:37.677Z,867.92
2023-04-21T20:28:04.400Z,852.97
2023-04-21T20:30:31.153Z,852.65
2023-04-21T20:32:57.785Z,844.30
2023-04-21T20:35:24.767Z,847.78
2023-04-21T20:37:53.442Z,839.63
2023-04-21T20:40:21.603Z,852.10
2023-04-21T20:42:48.700Z,850.00
2023-04-21T20:45:17.215Z,848.00
2023-04-21T20:47:43.872Z,855.00
2023-04-21T20:50:10.866Z,852.80
2023-04-21T20:52:37.548Z,864.10
2023-04-21T20:55:04.394Z,854.55
2023-04-21T20:57:31.268Z,860.55
2023-04-21T20:59:58.050Z,863.63
2023-04-21T21:02:24.889Z,860.53
2023-04-21T21:04:51.606Z,868.10
2023-04-21T21:07:18.238Z,863.72
2023-04-21T21:09:44.857Z,862.65
2023-04-21T21:12:11.601Z,873.85
2023-04-21T21:14:38.277Z,858.38
2023-04-21T21:17:05.198Z,855.60
2023-04-21T21:19:32.044Z,868.67
2023-04-21T21:21:58.629Z,861.22
2023-04-21T21:24:26.373Z,862.22
2023-04-21T21:26:53.045Z,861.85
2023-04-21T21:29:19.874Z,858.67
2023-04-21T21:31:46.620Z,858.28
2023-04-21T21:34:13.253Z,856.67
2023-04-21T21:36:39.990Z,845.92
2023-04-21T21:39:08.999Z,849.38
2023-04-21T21:41:37.872Z,840.80
2023-04-21T21:44:04.489Z,849.00
2023-04-21T21:46:31.409Z,837.67
2023-04-21T21:48:58.067Z,845.30
2023-04-21T21:51:24.764Z,846.80
2023-04-21T21:53:51.385Z,844.40
2023-04-21T21:56:18.110Z,846.47
2023-04-21T21:58:44.708Z,835.97
2023-04-21T22:01:11.607Z,840.20
2023-04-21T22:03:38.593Z,843.83
2023-04-21T22:06:06.144Z,839.47
2023-04-21T22:08:32.813Z,837.93
2023-04-21T22:11:00.082Z,834.50
2023-04-21T22:13:26.757Z,831.78
2023-04-21T22:15:53.622Z,842.63
2023-04-21T22:18:20.750Z,826.53
2023-04-21T22:20:47.504Z,833.00
2023-04-21T22:23:14.171Z,831.20
2023-04-21T22:25:41.048Z,827.67
2023-04-21T22:28:07.705Z,831.30
2023-04-21T22:30:34.397Z,833.95
2023-04-21T22:33:01.120Z,826.97
2023-04-21T22:35:27.882Z,833.00
2023-04-21T22:37:54.682Z,828.50
2023-04-21T22:40:21.356Z,821.65
2023-04-21T22:42:48.024Z,825.08
2023-04-21T22:45:14.626Z,824.30
2023-04-21T22:47:41.348Z,829.90
2023-04-21T22:50:09.431Z,832.67
2023-04-21T22:52:36.077Z,823.25
2023-04-21T22:55:03.803Z,821.20
2023-04-21T22:57:30.989Z,821.85
2023-04-21T22:59:57.605Z,820.67
2023-04-21T23:02:24.440Z,818.45
2023-04-21T23:04:51.121Z,825.22
2023-04-21T23:07:17.865Z,821.67
2023-04-21T23:09:44.480Z,817.40
2023-04-21T23:12:11.154Z,826.60
2023-04-21T23:14:37.808Z,818.07
2023-04-21T23:17:04.484Z,822.25
2023-04-21T23:19:31.092Z,809.05
2023-04-21T23:21:57.696Z,820.63
2023-04-21T23:24:24.361Z,824.28
2023-04-21T23:26:51.049Z,813.40
2023-04-21T23:29:18.487Z,812.72
